sensor_id;sensor_type;location;lat;lon;timestamp;P1;durP1;ratioP1;P2;durP2;ratioP2
62106;SDS011;48087;32.600;-97.100;2023-01-04T00:03:12;3;;;3;;
62106;SDS011;48087;32.600;-97.100;2023-01-04T00:25:32;4;;;4;;
62106;SDS011;48087;32.600;-97.100;2023-01-04T00:47:51;4;;;4;;
62106;SDS011;48087;32.600;-97.100;2023-01-04T01:10:10;6;;;6;;
62106;SDS011;48087;32.600;-97.100;2023-01-04T01:32:29;11;;;11;;
62106;SDS011;48087;32.600;-97.100;2023-01-04T01:54:48;10;;;10;;
62106;SDS011;48087;32.600;-97.100;2023-01-04T02:17:06;7;;;7;;
62106;SDS011;48087;32.600;-97.100;2023-01-04T02:39:26;8;;;8;;
62106;SDS011;48087;32.600;-97.100;2023-01-04T03:01:42;7;;;7;;
62106;SDS011;48087;32.600;-97.100;2023-01-04T03:23:59;7;;;7;;
62106;SDS011;48087;32.600;-97.100;2023-01-04T03:25:08;4;;;4;;
62106;SDS011;48087;32.600;-97.100;2023-01-04T03:47:26;4;;;4;;
62106;SDS011;48087;32.600;-97.100;2023-01-04T04:09:43;4;;;4;;
62106;SDS011;48087;32.600;-97.100;2023-01-04T04:32:00;8;;;8;;
62106;SDS011;48087;32.600;-97.100;2023-01-04T04:54:17;7;;;7;;
62106;SDS011;48087;32.600;-97.100;2023-01-04T05:16:32;4;;;4;;
62106;SDS011;48087;32.600;-97.100;2023-01-04T05:38:48;8;;;8;;
62106;SDS011;48087;32.600;-97.100;2023-01-04T06:01:03;8;;;8;;
62106;SDS011;48087;32.600;-97.100;2023-01-04T06:23:19;8;;;8;;
62106;SDS011;48087;32.600;-97.100;2023-01-04T07:07:49;7;;;7;;
62106;SDS011;48087;32.600;-97.100;2023-01-04T07:30:04;7;;;7;;
62106;SDS011;48087;32.600;-97.100;2023-01-04T07:52:19;8;;;8;;
62106;SDS011;48087;32.600;-97.100;2023-01-04T08:14:33;7;;;7;;
62106;SDS011;48087;32.600;-97.100;2023-01-04T08:36:47;8;;;8;;
62106;SDS011;48087;32.600;-97.100;2023-01-04T08:59:02;9;;;9;;
62106;SDS011;48087;32.600;-97.100;2023-01-04T09:21:16;10;;;10;;
62106;SDS011;48087;32.600;-97.100;2023-01-04T09:43:32;8;;;8;;
62106;SDS011;48087;32.600;-97.100;2023-01-04T10:05:45;8;;;8;;
62106;SDS011;48087;32.600;-97.100;2023-01-04T10:28:07;7;;;7;;
62106;SDS011;48087;32.600;-97.100;2023-01-04T10:50:15;11;;;11;;
62106;SDS011;48087;32.600;-97.100;2023-01-04T11:12:28;7;;;7;;
62106;SDS011;48087;32.600;-97.100;2023-01-04T11:34:43;8;;;8;;
62106;SDS011;48087;32.600;-97.100;2023-01-04T11:56:57;8;;;8;;
62106;SDS011;48087;32.600;-97.100;2023-01-04T12:19:12;7;;;7;;
62106;SDS011;48087;32.600;-97.100;2023-01-04T12:42:07;11;;;11;;
62106;SDS011;48087;32.600;-97.100;2023-01-04T13:03:43;11;;;11;;
62106;SDS011;48087;32.600;-97.100;2023-01-04T13:25:52;10;;;10;;
62106;SDS011;48087;32.600;-97.100;2023-01-04T13:48:08;13;;;13;;
62106;SDS011;48087;32.600;-97.100;2023-01-04T14:10:20;13;;;13;;
62106;SDS011;48087;32.600;-97.100;2023-01-04T14:32:33;17;;;15;;
62106;SDS011;48087;32.600;-97.100;2023-01-04T14:54:48;13;;;13;;
62106;SDS011;48087;32.600;-97.100;2023-01-04T15:17:04;10;;;10;;
62106;SDS011;48087;32.600;-97.100;2023-01-04T15:39:21;7;;;7;;
62106;SDS011;48087;32.600;-97.100;2023-01-04T16:01:39;4;;;4;;
62106;SDS011;48087;32.600;-97.100;2023-01-04T16:23:59;4;;;4;;
62106;SDS011;48087;32.600;-97.100;2023-01-04T16:46:19;4;;;4;;
62106;SDS011;48087;32.600;-97.100;2023-01-04T17:08:38;4;;;4;;
62106;SDS011;48087;32.600;-97.100;2023-01-04T17:31:02;4;;;4;;
62106;SDS011;48087;32.600;-97.100;2023-01-04T17:53:20;4;;;4;;
62106;SDS011;48087;32.600;-97.100;2023-01-04T18:15:42;5;;;5;;
62106;SDS011;48087;32.600;-97.100;2023-01-04T18:38:04;5;;;5;;
62106;SDS011;48087;32.600;-97.100;2023-01-04T19:00:26;7;;;7;;
62106;SDS011;48087;32.600;-97.100;2023-01-04T19:22:49;4;;;4;;
62106;SDS011;48087;32.600;-97.100;2023-01-04T19:45:12;4;;;4;;
62106;SDS011;48087;32.600;-97.100;2023-01-04T20:07:35;5;;;5;;
62106;SDS011;48087;32.600;-97.100;2023-01-04T20:30:00;4;;;4;;
62106;SDS011;48087;32.600;-97.100;2023-01-04T20:52:24;7;;;7;;
62106;SDS011;48087;32.600;-97.100;2023-01-04T21:14:48;4;;;4;;
62106;SDS011;48087;32.600;-97.100;2023-01-04T21:37:12;4;;;4;;
62106;SDS011;48087;32.600;-97.100;2023-01-04T21:59:35;4;;;4;;
62106;SDS011;48087;32.600;-97.100;2023-01-04T22:21:58;5;;;5;;
62106;SDS011;48087;32.600;-97.100;2023-01-04T22:44:20;5;;;5;;
62106;SDS011;48087;32.600;-97.100;2023-01-04T23:06:41;7;;;7;;
62106;SDS011;48087;32.600;-97.100;2023-01-04T23:29:01;4;;;4;;
62106;SDS011;48087;32.600;-97.100;2023-01-04T23:51:20;4;;;4;;
